sensor_id;sensor_type;location;lat;lon;timestamp;pressure;altitude;pressure_sealevel;temperature;humidity
69570;BME280;56781;42.292;23.146;2023-04-01T00:01:49;94723.88;;;9.81;67.03
69570;BME280;56781;42.292;23.146;2023-04-01T00:04:16;94724.66;;;9.82;66.58
69570;BME280;56781;42.292;23.146;2023-04-01T00:06:43;94755.03;;;9.86;67.56
69570;BME280;56781;42.292;23.146;2023-04-01T00:09:10;94735.16;;;9.52;68.53
69570;BME280;56781;42.292;23.146;2023-04-01T00:11:37;94725.59;;;9.51;69.66
69570;BME280;56781;42.292;23.146;2023-04-01T00:14:06;94732.09;;;9.10;72.53
69570;BME280;56781;42.292;23.146;2023-04-01T00:16:33;94758.53;;;8.89;75.28
69570;BME280;56781;42.292;23.146;2023-04-01T00:19:01;94728.56;;;8.52;77.06
69570;BME280;56781;42.292;23.146;2023-04-01T00:21:28;94728.19;;;8.76;74.42
69570;BME280;56781;42.292;23.146;2023-04-01T00:23:55;94716.94;;;8.57;75.29
69570;BME280;56781;42.292;23.146;2023-04-01T00:26:23;94714.00;;;8.58;76.00
69570;BME280;56781;42.292;23.146;2023-04-01T00:28:51;94726.63;;;8.75;76.76
69570;BME280;56781;42.292;23.146;2023-04-01T00:31:19;94720.66;;;8.78;75.94
69570;BME280;56781;42.292;23.146;2023-04-01T00:33:46;94703.97;;;8.64;75.58
69570;BME280;56781;42.292;23.146;2023-04-01T00:36:18;94737.03;;;8.85;75.20
69570;BME280;56781;42.292;23.146;2023-04-01T00:38:46;94713.41;;;8.70;75.13
69570;BME280;56781;42.292;23.146;2023-04-01T00:41:14;94705.72;;;8.69;75.32
69570;BME280;56781;42.292;23.146;2023-04-01T00:43:45;94700.63;;;8.50;76.49
69570;BME280;56781;42.292;23.146;2023-04-01T00:46:13;94694.44;;;8.72;76.84
69570;BME280;56781;42.292;23.146;2023-04-01T00:48:47;94714.69;;;8.81;75.24
69570;BME280;56781;42.292;23.146;2023-04-01T00:51:21;94728.03;;;8.81;78.33
69570;BME280;56781;42.292;23.146;2023-04-01T00:53:52;94706.41;;;8.52;79.10
69570;BME280;56781;42.292;23.146;2023-04-01T00:56:27;94732.09;;;8.39;81.58
69570;BME280;56781;42.292;23.146;2023-04-01T00:59:16;94732.31;;;8.29;82.89
69570;BME280;56781;42.292;23.146;2023-04-01T01:01:45;94715.28;;;8.16;83.56
69570;BME280;56781;42.292;23.146;2023-04-01T01:07:37;94722.50;;;7.93;86.01
69570;BME280;56781;42.292;23.146;2023-04-01T01:10:17;94699.69;;;8.32;80.04
69570;BME280;56781;42.292;23.146;2023-04-01T01:13:12;94682.78;;;8.36;80.56
69570;BME280;56781;42.292;23.146;2023-04-01T01:15:44;94706.06;;;8.45;82.49
69570;BME280;56781;42.292;23.146;2023-04-01T01:18:33;94661.56;;;8.62;78.32
69570;BME280;56781;42.292;23.146;2023-04-01T01:21:32;94671.25;;;8.90;76.38
69570;BME280;56781;42.292;23.146;2023-04-01T01:26:46;94675.94;;;9.67;72.05
69570;BME280;56781;42.292;23.146;2023-04-01T01:32:30;94687.72;;;9.84;71.35
69570;BME280;56781;42.292;23.146;2023-04-01T01:37:22;94653.75;;;9.75;70.45
69570;BME280;56781;42.292;23.146;2023-04-01T01:39:58;94658.78;;;9.68;71.03
69570;BME280;56781;42.292;23.146;2023-04-01T01:42:28;94659.13;;;9.58;71.01
69570;BME280;56781;42.292;23.146;2023-04-01T01:44:58;94671.66;;;9.49;71.88
69570;BME280;56781;42.292;23.146;2023-04-01T01:47:28;94670.09;;;9.48;72.50
69570;BME280;56781;42.292;23.146;2023-04-01T01:49:56;94653.28;;;9.56;72.07
69570;BME280;56781;42.292;23.146;2023-04-01T01:52:24;94657.81;;;9.21;74.08
69570;BME280;56781;42.292;23.146;2023-04-01T01:54:56;94667.34;;;8.96;76.34
69570;BME280;56781;42.292;23.146;2023-04-01T01:57:36;94665.72;;;8.77;78.78
69570;BME280;56781;42.292;23.146;2023-04-01T02:00:08;94660.38;;;8.69;79.07
69570;BME280;56781;42.292;23.146;2023-04-01T02:02:46;94648.44;;;8.66;80.35
69570;BME280;56781;42.292;23.146;2023-04-01T02:05:23;94655.81;;;8.69;80.84
69570;BME280;56781;42.292;23.146;2023-04-01T02:08:02;94649.09;;;8.40;82.72
69570;BME280;56781;42.292;23.146;2023-04-01T02:10:35;94647.28;;;8.27;83.43
69570;BME280;56781;42.292;23.146;2023-04-01T02:13:13;94652.28;;;8.20;84.19
69570;BME280;56781;42.292;23.146;2023-04-01T02:15:46;94641.75;;;8.15;83.93
69570;BME280;56781;42.292;23.146;2023-04-01T02:18:16;94641.59;;;8.20;84.16
69570;BME280;56781;42.292;23.146;2023-04-01T02:20:45;94641.25;;;8.13;84.74
69570;BME280;56781;42.292;23.146;2023-04-01T02:23:13;94624.06;;;7.96;85.58
69570;BME280;56781;42.292;23.146;2023-04-01T02:25:42;94657.53;;;8.11;84.89
69570;BME280;56781;42.292;23.146;2023-04-01T02:28:13;94629.69;;;7.95;84.99
69570;BME280;56781;42.292;23.146;2023-04-01T02:30:43;94627.41;;;7.80;86.00
69570;BME280;56781;42.292;23.146;2023-04-01T02:33:11;94647.88;;;7.93;86.17
69570;BME280;56781;42.292;23.146;2023-04-01T02:35:39;94625.78;;;7.70;86.63
69570;BME280;56781;42.292;23.146;2023-04-01T02:38:07;94633.50;;;7.35;89.12
69570;BME280;56781;42.292;23.146;2023-04-01T02:40:50;94651.91;;;7.68;89.21
69570;BME280;56781;42.292;23.146;2023-04-01T02:43:18;94623.56;;;7.94;86.87
69570;BME280;56781;42.292;23.146;2023-04-01T02:45:46;94632.69;;;7.93;86.22
69570;BME280;56781;42.292;23.146;2023-04-01T02:48:14;94644.88;;;8.17;84.31
69570;BME280;56781;42.292;23.146;2023-04-01T02:50:41;94664.66;;;8.47;82.89
69570;BME280;56781;42.292;23.146;2023-04-01T02:53:08;94645.72;;;8.26;83.22
69570;BME280;56781;42.292;23.146;2023-04-01T02:55:36;94620.31;;;8.29;81.68
69570;BME280;56781;42.292;23.146;2023-04-01T02:58:03;94628.19;;;8.74;79.84
69570;BME280;56781;42.292;23.146;2023-04-01T03:00:30;94640.41;;;8.66;81.82
69570;BME280;56781;42.292;23.146;2023-04-01T03:02:57;94635.69;;;8.32;83.50
69570;BME280;56781;42.292;23.146;2023-04-01T03:05:25;94643.47;;;8.42;83.84
69570;BME280;56781;42.292;23.146;2023-04-01T03:07:52;94628.97;;;8.34;83.43
69570;BME280;56781;42.292;23.146;2023-04-01T03:10:19;94625.47;;;8.25;85.38
69570;BME280;56781;42.292;23.146;2023-04-01T03:12:47;94618.69;;;8.19;87.36
69570;BME280;56781;42.292;23.146;2023-04-01T03:15:14;94608.78;;;8.11;88.52
69570;BME280;56781;42.292;23.146;2023-04-01T03:17:41;94613.72;;;8.26;86.54
69570;BME280;56781;42.292;23.146;2023-04-01T03:20:10;94615.47;;;8.31;86.62
69570;BME280;56781;42.292;23.146;2023-04-01T03:22:38;94615.16;;;8.32;86.24
69570;BME280;56781;42.292;23.146;2023-04-01T03:25:08;94590.72;;;8.08;87.68
69570;BME280;56781;42.292;23.146;2023-04-01T03:27:36;94642.44;;;8.29;87.92
69570;BME280;56781;42.292;23.146;2023-04-01T03:30:05;94622.97;;;8.29;85.70
69570;BME280;56781;42.292;23.146;2023-04-01T03:32:32;94617.97;;;8.36;87.06
69570;BME280;56781;42.292;23.146;2023-04-01T03:34:59;94602.91;;;8.31;85.89
69570;BME280;56781;42.292;23.146;2023-04-01T03:37:27;94620.50;;;8.72;84.40
69570;BME280;56781;42.292;23.146;2023-04-01T03:39:54;94608.44;;;8.75;83.48
69570;BME280;56781;42.292;23.146;2023-04-01T03:42:21;94569.41;;;8.39;83.94
69570;BME280;56781;42.292;23.146;2023-04-01T03:44:48;94573.19;;;8.47;84.21
69570;BME280;56781;42.292;23.146;2023-04-01T03:47:16;94580.13;;;8.56;83.86
69570;BME280;56781;42.292;23.146;2023-04-01T03:49:43;94598.53;;;8.75;83.80
69570;BME280;56781;42.292;23.146;2023-04-01T03:52:11;94577.44;;;8.48;84.63
69570;BME280;56781;42.292;23.146;2023-04-01T03:54:38;94550.84;;;8.34;85.79
69570;BME280;56781;42.292;23.146;2023-04-01T03:57:05;94568.47;;;8.43;85.05
69570;BME280;56781;42.292;23.146;2023-04-01T03:59:33;94554.31;;;8.34;87.10
69570;BME280;56781;42.292;23.146;2023-04-01T04:02:00;94542.84;;;7.94;87.86
69570;BME280;56781;42.292;23.146;2023-04-01T04:04:27;94540.47;;;7.92;88.35
69570;BME280;56781;42.292;23.146;2023-04-01T04:06:55;94557.16;;;7.98;87.94
69570;BME280;56781;42.292;23.146;2023-04-01T04:09:23;94546.94;;;8.00;88.23
69570;BME280;56781;42.292;23.146;2023-04-01T04:11:50;94527.03;;;7.97;88.02
69570;BME280;56781;42.292;23.146;2023-04-01T04:14:17;94536.00;;;8.41;86.57
69570;BME280;56781;42.292;23.146;2023-04-01T04:16:44;94523.91;;;8.44;86.36
69570;BME280;56781;42.292;23.146;2023-04-01T04:19:12;94526.91;;;8.42;85.57
69570;BME280;56781;42.292;23.146;2023-04-01T04:21:40;94509.00;;;8.43;85.57
69570;BME280;56781;42.292;23.146;2023-04-01T04:24:08;94517.72;;;8.26;86.96
69570;BME280;56781;42.292;23.146;2023-04-01T04:26:36;94519.72;;;8.12;87.93
69570;BME280;56781;42.292;23.146;2023-04-01T04:29:03;94537.88;;;8.41;88.38
69570;BME280;56781;42.292;23.146;2023-04-01T04:31:30;94501.66;;;8.09;90.51
69570;BME280;56781;42.292;23.146;2023-04-01T04:33:59;94503.41;;;8.05;91.34
69570;BME280;56781;42.292;23.146;2023-04-01T04:36:27;94532.75;;;8.22;91.52
69570;BME280;56781;42.292;23.146;2023-04-01T04:38:55;94498.19;;;7.99;91.61
69570;BME280;56781;42.292;23.146;2023-04-01T04:41:22;94495.84;;;7.98;91.93
69570;BME280;56781;42.292;23.146;2023-04-01T04:43:55;94492.72;;;7.96;91.70
69570;BME280;56781;42.292;23.146;2023-04-01T04:46:23;94493.84;;;8.04;91.33
69570;BME280;56781;42.292;23.146;2023-04-01T04:48:50;94475.19;;;8.04;91.27
69570;BME280;56781;42.292;23.146;2023-04-01T04:51:19;94466.84;;;7.96;91.17
69570;BME280;56781;42.292;23.146;2023-04-01T04:53:47;94465.78;;;8.06;90.76
69570;BME280;56781;42.292;23.146;2023-04-01T04:56:19;94466.84;;;7.96;91.37
69570;BME280;56781;42.292;23.146;2023-04-01T04:58:47;94471.13;;;8.15;91.45
69570;BME280;56781;42.292;23.146;2023-04-01T05:01:16;94453.72;;;8.17;90.26
69570;BME280;56781;42.292;23.146;2023-04-01T05:03:44;94437.28;;;8.33;87.83
69570;BME280;56781;42.292;23.146;2023-04-01T05:06:13;94443.13;;;8.43;87.71
69570;BME280;56781;42.292;23.146;2023-04-01T05:08:42;94437.34;;;8.50;87.14
69570;BME280;56781;42.292;23.146;2023-04-01T05:11:13;94435.25;;;8.38;87.90
69570;BME280;56781;42.292;23.146;2023-04-01T05:13:41;94451.78;;;8.00;92.53
69570;BME280;56781;42.292;23.146;2023-04-01T05:16:14;94455.56;;;7.99;92.54
69570;BME280;56781;42.292;23.146;2023-04-01T05:18:43;94454.31;;;8.06;92.09
69570;BME280;56781;42.292;23.146;2023-04-01T05:21:11;94430.81;;;8.08;90.67
69570;BME280;56781;42.292;23.146;2023-04-01T05:23:39;94415.16;;;8.32;87.85
69570;BME280;56781;42.292;23.146;2023-04-01T05:26:14;94450.81;;;8.62;87.37
69570;BME280;56781;42.292;23.146;2023-04-01T05:28:41;94430.44;;;8.75;87.03
69570;BME280;56781;42.292;23.146;2023-04-01T05:31:09;94437.63;;;10.96;75.05
69570;BME280;56781;42.292;23.146;2023-04-01T05:33:36;94400.19;;;12.80;66.02
69570;BME280;56781;42.292;23.146;2023-04-01T05:38:34;94411.06;;;15.33;56.08
69570;BME280;56781;42.292;23.146;2023-04-01T05:41:02;94395.34;;;16.83;50.54
69570;BME280;56781;42.292;23.146;2023-04-01T05:43:30;94406.56;;;17.16;48.66
69570;BME280;56781;42.292;23.146;2023-04-01T05:45:57;94427.25;;;18.68;45.51
69570;BME280;56781;42.292;23.146;2023-04-01T05:48:24;94395.13;;;18.74;43.63
69570;BME280;56781;42.292;23.146;2023-04-01T05:50:52;94408.69;;;17.37;46.30
69570;BME280;56781;42.292;23.146;2023-04-01T05:53:19;94388.78;;;17.93;46.15
69570;BME280;56781;42.292;23.146;2023-04-01T05:55:46;94373.91;;;17.76;45.37
69570;BME280;56781;42.292;23.146;2023-04-01T05:58:13;94396.53;;;19.19;43.10
69570;BME280;56781;42.292;23.146;2023-04-01T06:00:41;94390.44;;;20.69;40.04
69570;BME280;56781;42.292;23.146;2023-04-01T06:03:08;94376.38;;;20.89;40.27
69570;BME280;56781;42.292;23.146;2023-04-01T06:05:43;94395.88;;;20.41;41.95
69570;BME280;56781;42.292;23.146;2023-04-01T06:08:16;94373.69;;;19.45;43.02
69570;BME280;56781;42.292;23.146;2023-04-01T06:11:04;94360.22;;;19.99;41.25
69570;BME280;56781;42.292;23.146;2023-04-01T06:22:21;94391.19;;;16.63;49.43
69570;BME280;56781;42.292;23.146;2023-04-01T06:28:15;94408.53;;;16.09;52.51
69570;BME280;56781;42.292;23.146;2023-04-01T06:42:46;94371.41;;;15.33;53.04
69570;BME280;56781;42.292;23.146;2023-04-01T06:45:41;94350.72;;;14.05;57.54
69570;BME280;56781;42.292;23.146;2023-04-01T06:48:41;94332.81;;;13.77;59.91
69570;BME280;56781;42.292;23.146;2023-04-01T06:51:44;94341.88;;;14.04;59.77
69570;BME280;56781;42.292;23.146;2023-04-01T06:54:23;94362.31;;;14.25;56.80
69570;BME280;56781;42.292;23.146;2023-04-01T06:56:58;94391.66;;;14.65;59.03
69570;BME280;56781;42.292;23.146;2023-04-01T06:59:28;94392.38;;;14.62;60.29
69570;BME280;56781;42.292;23.146;2023-04-01T07:02:18;94392.03;;;14.12;63.83
69570;BME280;56781;42.292;23.146;2023-04-01T07:04:50;94360.16;;;13.63;64.84
69570;BME280;56781;42.292;23.146;2023-04-01T07:07:31;94367.16;;;13.36;62.24
69570;BME280;56781;42.292;23.146;2023-04-01T07:10:05;94367.88;;;13.21;64.76
69570;BME280;56781;42.292;23.146;2023-04-01T07:12:46;94356.59;;;13.15;64.41
69570;BME280;56781;42.292;23.146;2023-04-01T07:15:19;94357.00;;;13.01;65.50
69570;BME280;56781;42.292;23.146;2023-04-01T07:17:53;94362.31;;;12.98;66.39
69570;BME280;56781;42.292;23.146;2023-04-01T07:20:32;94372.53;;;13.08;65.20
69570;BME280;56781;42.292;23.146;2023-04-01T07:23:02;94379.75;;;13.20;64.85
69570;BME280;56781;42.292;23.146;2023-04-01T07:25:35;94377.56;;;13.09;63.60
69570;BME280;56781;42.292;23.146;2023-04-01T07:28:10;94386.53;;;13.14;63.21
69570;BME280;56781;42.292;23.146;2023-04-01T07:38:58;94333.00;;;13.37;59.12
69570;BME280;56781;42.292;23.146;2023-04-01T07:47:16;94363.44;;;13.57;60.80
69570;BME280;56781;42.292;23.146;2023-04-01T07:50:02;94321.16;;;13.25;60.77
69570;BME280;56781;42.292;23.146;2023-04-01T07:52:38;94340.44;;;13.27;60.71
69570;BME280;56781;42.292;23.146;2023-04-01T07:55:16;94304.50;;;13.04;61.33
69570;BME280;56781;42.292;23.146;2023-04-01T07:58:02;94299.44;;;13.30;59.84
69570;BME280;56781;42.292;23.146;2023-04-01T08:00:44;94300.28;;;13.66;58.83
69570;BME280;56781;42.292;23.146;2023-04-01T08:03:22;94284.56;;;13.84;57.99
69570;BME280;56781;42.292;23.146;2023-04-01T08:06:00;94291.66;;;13.92;57.32
69570;BME280;56781;42.292;23.146;2023-04-01T08:08:52;94270.25;;;13.64;56.82
69570;BME280;56781;42.292;23.146;2023-04-01T08:11:29;94280.88;;;13.57;58.20
69570;BME280;56781;42.292;23.146;2023-04-01T08:22:41;94260.59;;;14.14;55.56
69570;BME280;56781;42.292;23.146;2023-04-01T08:25:16;94274.19;;;14.41;55.10
69570;BME280;56781;42.292;23.146;2023-04-01T08:27:47;94253.81;;;14.59;54.85
69570;BME280;56781;42.292;23.146;2023-04-01T08:30:22;94211.56;;;14.63;52.64
69570;BME280;56781;42.292;23.146;2023-04-01T08:33:12;94220.41;;;14.87;51.72
69570;BME280;56781;42.292;23.146;2023-04-01T08:35:52;94213.03;;;15.30;51.50
69570;BME280;56781;42.292;23.146;2023-04-01T08:38:31;94211.97;;;16.52;47.76
69570;BME280;56781;42.292;23.146;2023-04-01T08:43:51;94178.44;;;16.94;47.04
69570;BME280;56781;42.292;23.146;2023-04-01T08:46:33;94185.81;;;17.52;46.00
69570;BME280;56781;42.292;23.146;2023-04-01T08:52:00;94156.81;;;18.26;44.21
69570;BME280;56781;42.292;23.146;2023-04-01T08:58:10;94135.56;;;19.78;42.69
69570;BME280;56781;42.292;23.146;2023-04-01T09:03:48;94111.97;;;20.52;37.80
69570;BME280;56781;42.292;23.146;2023-04-01T09:06:31;94130.44;;;20.09;36.74
69570;BME280;56781;42.292;23.146;2023-04-01T09:09:04;94114.28;;;21.06;35.75
69570;BME280;56781;42.292;23.146;2023-04-01T09:15:02;94092.44;;;19.95;37.50
69570;BME280;56781;42.292;23.146;2023-04-01T09:20:43;94088.94;;;20.01;39.02
69570;BME280;56781;42.292;23.146;2023-04-01T09:26:21;94109.31;;;20.97;38.37
69570;BME280;56781;42.292;23.146;2023-04-01T09:29:10;94107.09;;;20.19;39.15
69570;BME280;56781;42.292;23.146;2023-04-01T09:48:43;94083.34;;;19.13;39.61
69570;BME280;56781;42.292;23.146;2023-04-01T09:54:32;94102.28;;;18.52;40.17
69570;BME280;56781;42.292;23.146;2023-04-01T10:00:15;94077.13;;;18.59;40.23
69570;BME280;56781;42.292;23.146;2023-04-01T10:24:28;94087.19;;;18.48;39.29
69570;BME280;56781;42.292;23.146;2023-04-01T10:26:35;94085.66;;;18.65;36.87
69570;BME280;56781;42.292;23.146;2023-04-01T10:35:19;94070.19;;;18.94;36.88
69570;BME280;56781;42.292;23.146;2023-04-01T11:17:59;93979.66;;;19.72;34.62
69570;BME280;56781;42.292;23.146;2023-04-01T11:20:28;93974.47;;;19.11;35.88
69570;BME280;56781;42.292;23.146;2023-04-01T11:26:14;93983.44;;;18.69;37.07
69570;BME280;56781;42.292;23.146;2023-04-01T11:31:54;93997.22;;;17.67;38.80
69570;BME280;56781;42.292;23.146;2023-04-01T11:37:50;94073.59;;;17.32;38.93
69570;BME280;56781;42.292;23.146;2023-04-01T11:46:11;94201.84;;;12.51;82.24
69570;BME280;56781;42.292;23.146;2023-04-01T11:51:57;94218.25;;;10.67;100.00
69570;BME280;56781;42.292;23.146;2023-04-01T11:54:51;94246.53;;;10.43;100.00
69570;BME280;56781;42.292;23.146;2023-04-01T11:57:40;94264.94;;;10.24;100.00
69570;BME280;56781;42.292;23.146;2023-04-01T12:03:21;94275.28;;;10.46;100.00
69570;BME280;56781;42.292;23.146;2023-04-01T12:08:51;94264.78;;;10.41;100.00
69570;BME280;56781;42.292;23.146;2023-04-01T12:11:33;94296.97;;;10.53;100.00
69570;BME280;56781;42.292;23.146;2023-04-01T12:14:14;94291.59;;;10.53;100.00
69570;BME280;56781;42.292;23.146;2023-04-01T12:20:01;94314.09;;;10.52;100.00
69570;BME280;56781;42.292;23.146;2023-04-01T12:22:49;94320.78;;;10.46;100.00
69570;BME280;56781;42.292;23.146;2023-04-01T12:55:35;94296.31;;;12.40;100.00
69570;BME280;56781;42.292;23.146;2023-04-01T13:03:48;94297.94;;;12.17;100.00
69570;BME280;56781;42.292;23.146;2023-04-01T13:06:25;94306.25;;;11.75;100.00
69570;BME280;56781;42.292;23.146;2023-04-01T13:17:35;94268.97;;;11.33;100.00
69570;BME280;56781;42.292;23.146;2023-04-01T13:20:34;94270.41;;;11.67;100.00
69570;BME280;56781;42.292;23.146;2023-04-01T14:14:33;94198.53;;;11.97;100.00
69570;BME280;56781;42.292;23.146;2023-04-01T14:17:30;94244.00;;;11.94;100.00
69570;BME280;56781;42.292;23.146;2023-04-01T14:24:00;94234.66;;;11.63;100.00
69570;BME280;56781;42.292;23.146;2023-04-01T14:45:32;94221.91;;;12.25;91.46
69570;BME280;56781;42.292;23.146;2023-04-01T14:50:51;94201.28;;;13.05;90.80
69570;BME280;56781;42.292;23.146;2023-04-01T14:55:55;94213.09;;;13.00;89.78
69570;BME280;56781;42.292;23.146;2023-04-01T14:59:07;94199.63;;;12.69;89.28
69570;BME280;56781;42.292;23.146;2023-04-01T15:01:46;94202.00;;;12.42;88.94
69570;BME280;56781;42.292;23.146;2023-04-01T15:18:39;94201.69;;;12.44;88.41
69570;BME280;56781;42.292;23.146;2023-04-01T15:21:19;94189.66;;;12.53;89.31
69570;BME280;56781;42.292;23.146;2023-04-01T15:24:24;94209.78;;;12.59;83.21
69570;BME280;56781;42.292;23.146;2023-04-01T15:29:47;94224.59;;;13.17;79.56
69570;BME280;56781;42.292;23.146;2023-04-01T15:40:49;94245.56;;;12.35;84.89
69570;BME280;56781;42.292;23.146;2023-04-01T15:46:21;94237.06;;;12.33;86.05
69570;BME280;56781;42.292;23.146;2023-04-01T15:54:38;94246.44;;;13.15;83.68
69570;BME280;56781;42.292;23.146;2023-04-01T16:11:21;94257.56;;;12.26;88.16
69570;BME280;56781;42.292;23.146;2023-04-01T16:14:06;94265.22;;;12.11;89.10
69570;BME280;56781;42.292;23.146;2023-04-01T16:19:51;94224.44;;;11.41;91.53
69570;BME280;56781;42.292;23.146;2023-04-01T16:22:38;94260.69;;;11.63;92.80
69570;BME280;56781;42.292;23.146;2023-04-01T16:25:20;94243.97;;;11.53;93.28
69570;BME280;56781;42.292;23.146;2023-04-01T16:30:42;94263.81;;;11.52;93.05
69570;BME280;56781;42.292;23.146;2023-04-01T16:33:30;94308.28;;;11.53;94.01
69570;BME280;56781;42.292;23.146;2023-04-01T16:38:37;94375.31;;;11.08;91.63
69570;BME280;56781;42.292;23.146;2023-04-01T16:41:31;94410.56;;;10.35;87.16
69570;BME280;56781;42.292;23.146;2023-04-01T16:44:17;94425.59;;;9.42;91.10
69570;BME280;56781;42.292;23.146;2023-04-01T16:46:50;94416.78;;;8.68;96.21
69570;BME280;56781;42.292;23.146;2023-04-01T16:49:40;94407.66;;;8.34;96.32
69570;BME280;56781;42.292;23.146;2023-04-01T16:52:13;94432.56;;;8.21;99.86
69570;BME280;56781;42.292;23.146;2023-04-01T16:54:58;94472.84;;;8.11;100.00
69570;BME280;56781;42.292;23.146;2023-04-01T16:57:50;94453.34;;;7.93;100.00
69570;BME280;56781;42.292;23.146;2023-04-01T17:00:28;94465.56;;;7.85;100.00
69570;BME280;56781;42.292;23.146;2023-04-01T17:03:21;94489.41;;;7.90;100.00
69570;BME280;56781;42.292;23.146;2023-04-01T17:08:54;94519.22;;;8.01;97.87
69570;BME280;56781;42.292;23.146;2023-04-01T17:11:27;94527.69;;;8.03;97.90
69570;BME280;56781;42.292;23.146;2023-04-01T17:14:31;94532.72;;;8.05;97.46
69570;BME280;56781;42.292;23.146;2023-04-01T17:17:12;94516.69;;;7.96;98.21
69570;BME280;56781;42.292;23.146;2023-04-01T17:45:52;94582.41;;;8.40;94.59
69570;BME280;56781;42.292;23.146;2023-04-01T17:48:36;94582.28;;;8.46;93.48
69570;BME280;56781;42.292;23.146;2023-04-01T17:59:39;94602.44;;;8.29;95.30
69570;BME280;56781;42.292;23.146;2023-04-01T18:02:42;94616.66;;;8.47;92.93
69570;BME280;56781;42.292;23.146;2023-04-01T18:05:30;94628.91;;;8.57;88.35
69570;BME280;56781;42.292;23.146;2023-04-01T18:10:51;94613.66;;;8.49;86.67
69570;BME280;56781;42.292;23.146;2023-04-01T18:14:15;94615.56;;;8.48;88.22
69570;BME280;56781;42.292;23.146;2023-04-01T18:19:34;94643.53;;;8.68;88.56
69570;BME280;56781;42.292;23.146;2023-04-01T18:27:43;94609.00;;;8.63;89.38
69570;BME280;56781;42.292;23.146;2023-04-01T18:30:16;94620.66;;;8.76;92.39
69570;BME280;56781;42.292;23.146;2023-04-01T18:39:00;94618.78;;;8.36;89.49
69570;BME280;56781;42.292;23.146;2023-04-01T18:41:38;94617.00;;;8.23;89.42
69570;BME280;56781;42.292;23.146;2023-04-01T18:44:29;94618.69;;;8.19;89.91
69570;BME280;56781;42.292;23.146;2023-04-01T18:50:27;94632.88;;;8.28;92.38
69570;BME280;56781;42.292;23.146;2023-04-01T18:56:08;94622.94;;;7.07;100.00
69570;BME280;56781;42.292;23.146;2023-04-01T18:58:51;94627.91;;;7.00;100.00
69570;BME280;56781;42.292;23.146;2023-04-01T19:01:42;94647.81;;;7.39;98.13
69570;BME280;56781;42.292;23.146;2023-04-01T19:07:40;94648.31;;;6.36;100.00
69570;BME280;56781;42.292;23.146;2023-04-01T19:15:46;94659.22;;;6.76;100.00
69570;BME280;56781;42.292;23.146;2023-04-01T19:18:42;94668.72;;;6.68;100.00
69570;BME280;56781;42.292;23.146;2023-04-01T19:23:59;94678.53;;;6.40;100.00
69570;BME280;56781;42.292;23.146;2023-04-01T19:29:26;94675.19;;;6.76;100.00
69570;BME280;56781;42.292;23.146;2023-04-01T19:37:40;94680.13;;;6.82;100.00
69570;BME280;56781;42.292;23.146;2023-04-01T19:45:59;94697.75;;;6.78;100.00
69570;BME280;56781;42.292;23.146;2023-04-01T19:51:37;94707.00;;;6.81;100.00
69570;BME280;56781;42.292;23.146;2023-04-01T20:05:39;94721.69;;;6.78;100.00
69570;BME280;56781;42.292;23.146;2023-04-01T20:13:46;94737.66;;;6.18;100.00
69570;BME280;56781;42.292;23.146;2023-04-01T20:16:18;94743.81;;;6.13;100.00
69570;BME280;56781;42.292;23.146;2023-04-01T20:18:55;94763.97;;;6.33;100.00
69570;BME280;56781;42.292;23.146;2023-04-01T20:21:38;94749.22;;;6.27;100.00
69570;BME280;56781;42.292;23.146;2023-04-01T20:24:18;94744.94;;;5.93;100.00
69570;BME280;56781;42.292;23.146;2023-04-01T20:27:22;94733.78;;;5.72;100.00
69570;BME280;56781;42.292;23.146;2023-04-01T20:33:26;94761.88;;;5.78;100.00
69570;BME280;56781;42.292;23.146;2023-04-01T20:36:06;94741.69;;;5.40;100.00
69570;BME280;56781;42.292;23.146;2023-04-01T20:39:19;94738.69;;;5.27;100.00
69570;BME280;56781;42.292;23.146;2023-04-01T20:44:29;94752.81;;;5.42;100.00
69570;BME280;56781;42.292;23.146;2023-04-01T20:52:45;94757.31;;;5.22;100.00
69570;BME280;56781;42.292;23.146;2023-04-01T20:58:31;94782.59;;;5.39;100.00
69570;BME280;56781;42.292;23.146;2023-04-01T21:10:16;94774.97;;;5.51;100.00
69570;BME280;56781;42.292;23.146;2023-04-01T21:13:03;94753.97;;;4.63;100.00
69570;BME280;56781;42.292;23.146;2023-04-01T21:15:50;94776.06;;;4.83;100.00
69570;BME280;56781;42.292;23.146;2023-04-01T21:21:15;94756.44;;;5.08;100.00
69570;BME280;56781;42.292;23.146;2023-04-01T21:29:36;94770.00;;;4.24;100.00
69570;BME280;56781;42.292;23.146;2023-04-01T21:32:34;94758.00;;;4.03;100.00
69570;BME280;56781;42.292;23.146;2023-04-01T21:38:06;94754.34;;;4.57;100.00
69570;BME280;56781;42.292;23.146;2023-04-01T21:40:56;94747.00;;;4.49;100.00
69570;BME280;56781;42.292;23.146;2023-04-01T21:49:28;94762.47;;;4.36;100.00
69570;BME280;56781;42.292;23.146;2023-04-01T21:52:23;94764.84;;;3.69;100.00
69570;BME280;56781;42.292;23.146;2023-04-01T22:00:32;94783.69;;;3.58;100.00
69570;BME280;56781;42.292;23.146;2023-04-01T22:08:45;94733.97;;;3.54;100.00
69570;BME280;56781;42.292;23.146;2023-04-01T22:25:30;94744.00;;;3.08;100.00
69570;BME280;56781;42.292;23.146;2023-04-01T22:28:09;94739.69;;;3.27;100.00
69570;BME280;56781;42.292;23.146;2023-04-01T22:30:42;94744.13;;;3.37;100.00
69570;BME280;56781;42.292;23.146;2023-04-01T22:33:30;94754.25;;;3.20;100.00
69570;BME280;56781;42.292;23.146;2023-04-01T22:36:16;94774.44;;;3.00;100.00
69570;BME280;56781;42.292;23.146;2023-04-01T22:39:04;94760.06;;;3.22;100.00
69570;BME280;56781;42.292;23.146;2023-04-01T22:50:30;94754.84;;;3.06;100.00
69570;BME280;56781;42.292;23.146;2023-04-01T22:55:53;94785.53;;;3.07;100.00
69570;BME280;56781;42.292;23.146;2023-04-01T22:58:31;94791.81;;;3.22;100.00
69570;BME280;56781;42.292;23.146;2023-04-01T23:01:04;94797.16;;;3.06;100.00
69570;BME280;56781;42.292;23.146;2023-04-01T23:03:34;94804.91;;;2.82;100.00
69570;BME280;56781;42.292;23.146;2023-04-01T23:06:15;94788.34;;;2.20;100.00